Arthur, North Dakota
Current Conditions -  °F | °C
As of 5:53 PM on Thursday 27 Nov 2014 (Local Time) from KFAR Reporting Station
Broken Clouds Broken Clouds  
Wind Chill: -8°   Ceiling: 8000
Heat Index:   Visibility: 10mi
Dew Point: -2°   Wind: 13mph
Humidity: 64%   Direction: 160°SSE
Pressure: 30.26"   Gusts: NA
Location:  47.1°N, 97.22°W
Report Text: KFAR 272353Z 16011KT 10SM BKN080 M13/M19 A3026 RMK AO2 SLP274 T11331189 11128 21167 58027
Loading
Personal Weather Stations






























Interactive Weather Map New forecast layout! Learn more

10-Day Weather Forecast

Advertisements
Track Severe Weather on mobile